Time;durP1;ratioP1;P1;durP2;ratioP2;P2;SDS_P1;SDS_P2;PMS_P1;PMS_P2;Temp;Humidity;BMP_temperature;BMP_pressure;BME280_temperature;BME280_humidity;BME280_pressure;Samples;Min_cycle;Max_cycle;Signal;HPM_P1;HPM_P2
2023/10/28 00:00:16;;;;;;;0.70;0.70;;;10.10;99.90;;;;;;5075913;28;20141;-69
2023/10/28 00:02:41;;;;;;;0.70;0.70;;;10.00;99.90;;;;;;5074652;28;20044;-69
2023/10/28 00:05:07;;;;;;;0.60;0.60;;;10.00;99.90;;;;;;5075709;28;20040;-69
2023/10/28 00:07:33;;;;;;;1.58;1.08;;;10.00;99.90;;;;;;5075513;28;20048;-69
2023/10/28 00:09:59;;;;;;;0.60;0.60;;;10.20;99.90;;;;;;5075926;28;20079;-69
2023/10/28 00:12:24;;;;;;;0.60;0.60;;;10.00;99.90;;;;;;5074396;28;20041;-70
2023/10/28 00:14:50;;;;;;;1.42;1.00;;;10.00;99.90;;;;;;5076025;28;20047;-70
2023/10/28 00:17:17;;;;;;;0.60;0.60;;;10.10;99.90;;;;;;5075689;28;20533;-70
2023/10/28 00:19:43;;;;;;;0.60;0.60;;;10.00;99.90;;;;;;5075511;28;20048;-70
2023/10/28 00:22:08;;;;;;;0.82;0.82;;;10.00;99.90;;;;;;5075431;28;20036;-70
2023/10/28 00:24:34;;;;;;;0.85;0.85;;;9.90;99.90;;;;;;5075394;28;20045;-70
2023/10/28 00:26:59;;;;;;;0.60;0.60;;;9.90;99.90;;;;;;5075419;28;20457;-70
2023/10/28 00:29:25;;;;;;;0.93;0.93;;;9.90;99.90;;;;;;5075295;28;20036;-70
2023/10/28 00:31:51;;;;;;;4.47;1.42;;;9.80;99.90;;;;;;5075255;28;20044;-70
2023/10/28 00:34:17;;;;;;;0.73;0.73;;;9.80;99.90;;;;;;5075552;28;20120;-70
2023/10/28 00:36:42;;;;;;;0.60;0.60;;;9.70;99.90;;;;;;5075216;28;20431;-70
2023/10/28 00:39:10;;;;;;;0.60;0.60;;;9.80;99.90;;;;;;5075356;28;20040;-70
2023/10/28 00:41:37;;;;;;;0.70;0.70;;;9.60;99.90;;;;;;5075062;28;20075;-70
2023/10/28 00:44:04;;;;;;;0.90;0.88;;;9.60;99.90;;;;;;5075058;28;20040;-70
2023/10/28 00:46:31;;;;;;;0.65;0.65;;;9.60;99.90;;;;;;5075064;28;20044;-70
2023/10/28 00:48:56;;;;;;;0.80;0.80;;;9.60;99.90;;;;;;5074849;28;20028;-70
2023/10/28 00:51:22;;;;;;;1.30;1.20;;;9.60;99.90;;;;;;5075122;28;20384;-70
2023/10/28 00:53:49;;;;;;;0.73;0.73;;;9.60;99.90;;;;;;5074837;28;20036;-70
2023/10/28 00:56:17;;;;;;;0.70;0.70;;;9.60;99.90;;;;;;5074755;28;20502;-70
2023/10/28 00:58:44;;;;;;;0.60;0.60;;;9.80;99.90;;;;;;5074722;28;20074;-70
2023/10/28 01:01:12;;;;;;;0.60;0.60;;;9.70;99.90;;;;;;5073693;28;20044;-70
2023/10/28 01:03:40;;;;;;;0.80;0.80;;;9.70;99.90;;;;;;5074717;28;20037;-70
2023/10/28 01:06:09;;;;;;;0.60;0.60;;;9.70;99.90;;;;;;5074857;28;20115;-69
2023/10/28 01:08:35;;;;;;;0.80;0.80;;;9.70;99.90;;;;;;5074873;28;20106;-70
2023/10/28 01:11:01;;;;;;;0.70;0.70;;;9.70;99.90;;;;;;5074452;28;20127;-70
2023/10/28 01:13:28;;;;;;;0.60;0.60;;;9.70;99.90;;;;;;5074469;28;20131;-70
2023/10/28 01:15:53;;;;;;;4.97;0.80;;;9.70;99.90;;;;;;5074502;28;20099;-70
2023/10/28 01:18:20;;;;;;;1.48;1.17;;;9.80;99.90;;;;;;5074487;28;20072;-69
2023/10/28 01:20:46;;;;;;;0.70;0.70;;;9.70;99.90;;;;;;5074353;28;20119;-69
2023/10/28 01:23:12;;;;;;;0.70;0.70;;;9.70;99.90;;;;;;5074298;28;20128;-69
2023/10/28 01:25:37;;;;;;;1.02;1.00;;;9.70;99.90;;;;;;5073092;28;20036;-69
2023/10/28 01:28:03;;;;;;;1.08;1.02;;;9.70;99.90;;;;;;5074607;28;20050;-69
2023/10/28 01:30:29;;;;;;;0.60;0.60;;;9.70;99.90;;;;;;5074528;28;20036;-70
2023/10/28 01:32:55;;;;;;;0.70;0.70;;;9.60;99.90;;;;;;5074184;28;20041;-69
2023/10/28 01:35:20;;;;;;;1.58;1.48;;;9.60;99.90;;;;;;5074258;28;20097;-70
2023/10/28 01:37:46;;;;;;;0.60;0.60;;;10.00;99.90;;;;;;5074140;28;20475;-69
2023/10/28 01:40:14;;;;;;;0.70;0.70;;;9.60;99.90;;;;;;5073975;28;20076;-69
2023/10/28 01:42:41;;;;;;;0.70;0.70;;;9.50;99.90;;;;;;5073992;28;20036;-69
2023/10/28 01:45:09;;;;;;;0.60;0.60;;;9.70;99.90;;;;;;5073878;28;20556;-69
2023/10/28 01:47:35;;;;;;;0.70;0.70;;;9.50;99.90;;;;;;5074177;28;20055;-69
2023/10/28 01:50:01;;;;;;;0.60;0.60;;;9.50;99.90;;;;;;5074054;28;20044;-69
2023/10/28 01:52:28;;;;;;;0.70;0.70;;;9.50;99.90;;;;;;5073974;28;20135;-69
2023/10/28 01:54:53;;;;;;;2.15;1.88;;;9.50;99.90;;;;;;5073380;28;20032;-69
2023/10/28 01:57:20;;;;;;;0.80;0.80;;;9.60;99.90;;;;;;5073897;28;20055;-69
2023/10/28 01:59:45;;;;;;;1.73;1.63;;;9.50;99.90;;;;;;5073725;28;20049;-70
2023/10/28 02:02:11;;;;;;;0.60;0.60;;;9.40;99.90;;;;;;5073763;28;20064;-70
2023/10/28 02:04:37;;;;;;;0.80;0.80;;;9.40;99.90;;;;;;5073950;28;20094;-69
2023/10/28 02:07:04;;;;;;;0.80;0.80;;;9.40;99.90;;;;;;5073700;28;20040;-70
2023/10/28 02:09:33;;;;;;;1.23;1.13;;;9.40;99.90;;;;;;5073660;28;20124;-69
2023/10/28 02:12:02;;;;;;;0.93;0.77;;;9.40;99.90;;;;;;5072298;28;20051;-69
2023/10/28 02:14:28;;;;;;;1.23;1.13;;;9.90;99.90;;;;;;5073838;28;20041;-69
2023/10/28 02:16:55;;;;;;;0.70;0.70;;;9.30;99.90;;;;;;5073757;28;20044;-69
2023/10/28 02:19:21;;;;;;;;;;;9.30;99.90;;;;;;5073973;28;20046;-69
2023/10/28 02:21:50;;;;;;;0.70;0.70;;;9.30;99.90;;;;;;5073490;28;19916;-69
2023/10/28 02:24:19;;;;;;;0.75;0.75;;;9.30;99.90;;;;;;5073137;28;20115;-70
2023/10/28 02:26:45;;;;;;;0.70;0.70;;;9.70;99.90;;;;;;5073416;28;20434;-69
2023/10/28 02:29:11;;;;;;;0.80;0.80;;;9.30;99.90;;;;;;5073476;28;20040;-69
2023/10/28 02:31:37;;;;;;;0.70;0.70;;;9.20;99.90;;;;;;5073539;28;20131;-69
2023/10/28 02:34:06;;;;;;;1.17;1.10;;;9.20;99.90;;;;;;5073297;28;20032;-69
2023/10/28 02:36:32;;;;;;;0.80;0.80;;;9.20;99.90;;;;;;5073425;28;20041;-69
2023/10/28 02:38:58;;;;;;;0.68;0.68;;;9.20;99.90;;;;;;5073306;28;20055;-69
2023/10/28 02:41:24;;;;;;;1.13;1.03;;;9.10;99.90;;;;;;5073337;28;20045;-69
2023/10/28 02:43:50;;;;;;;0.70;0.70;;;9.10;99.90;;;;;;5073281;28;20471;-69
2023/10/28 02:46:22;;;;;;;0.90;0.90;;;9.10;99.90;;;;;;5073511;28;20094;-69
2023/10/28 02:48:48;;;;;;;0.90;0.90;;;9.10;99.90;;;;;;5073099;28;20037;-69
2023/10/28 02:51:13;;;;;;;1.02;1.02;;;9.10;99.90;;;;;;5073182;28;20040;-70
2023/10/28 02:53:40;;;;;;;1.02;0.93;;;9.10;99.90;;;;;;5073685;28;20396;-70
2023/10/28 02:56:06;;;;;;;0.75;0.75;;;9.60;99.90;;;;;;5073605;28;20047;-69
2023/10/28 02:58:31;;;;;;;0.93;0.93;;;9.10;99.90;;;;;;5073148;28;20127;-69
2023/10/28 03:01:06;;;;;;;0.60;0.60;;;9.10;99.90;;;;;;5072887;28;20128;-70
2023/10/28 03:03:32;;;;;;;0.95;0.90;;;9.10;99.90;;;;;;5073190;28;20128;-70
2023/10/28 03:05:57;;;;;;;0.60;0.60;;;9.10;99.90;;;;;;5073060;28;20076;-70
2023/10/28 03:08:23;;;;;;;0.90;0.90;;;9.20;99.90;;;;;;5073610;28;20071;-70
2023/10/28 03:10:49;;;;;;;0.60;0.60;;;9.10;99.90;;;;;;5072167;28;20041;-70
2023/10/28 03:13:15;;;;;;;1.08;1.08;;;9.10;99.90;;;;;;5072855;28;20495;-70
2023/10/28 03:15:40;;;;;;;0.60;0.60;;;9.20;99.90;;;;;;5073208;28;20044;-70
2023/10/28 03:18:06;;;;;;;0.60;0.60;;;9.20;99.90;;;;;;5073053;28;20074;-70
2023/10/28 03:20:31;;;;;;;2.28;1.00;;;9.80;99.90;;;;;;5072891;28;20055;-70
2023/10/28 03:22:57;;;;;;;0.60;0.60;;;9.30;99.90;;;;;;5073620;28;20369;-70
2023/10/28 03:25:23;;;;;;;1.00;1.00;;;9.30;99.90;;;;;;5076622;28;20080;-70
2023/10/28 03:27:49;;;;;;;0.93;0.93;;;9.20;99.90;;;;;;5076984;28;20072;-70
2023/10/28 03:30:14;;;;;;;1.15;1.08;;;9.20;99.90;;;;;;5076910;28;20526;-70
2023/10/28 03:32:40;;;;;;;0.80;0.80;;;9.20;99.90;;;;;;5076395;28;20036;-70
2023/10/28 03:35:06;;;;;;;0.88;0.88;;;9.20;99.90;;;;;;5075220;28;20128;-70
2023/10/28 03:37:32;;;;;;;0.70;0.70;;;9.20;99.90;;;;;;5075216;28;20121;-69
2023/10/28 03:39:59;;;;;;;0.80;0.80;;;9.20;99.90;;;;;;5076294;28;20505;-70
2023/10/28 03:42:24;;;;;;;0.85;0.85;;;9.20;99.90;;;;;;5076248;28;20045;-70
2023/10/28 03:44:50;;;;;;;0.60;0.60;;;10.00;99.90;;;;;;5076232;28;20044;-70
2023/10/28 03:47:16;;;;;;;0.60;0.60;;;9.30;99.90;;;;;;5076144;28;20490;-70
2023/10/28 03:49:42;;;;;;;1.00;0.98;;;9.30;99.90;;;;;;5076123;28;20052;-70
2023/10/28 03:52:07;;;;;;;0.60;0.60;;;9.30;99.90;;;;;;5075786;28;20091;-70
2023/10/28 03:54:33;;;;;;;0.60;0.60;;;9.30;99.90;;;;;;5075284;28;20127;-70
2023/10/28 03:56:59;;;;;;;0.80;0.80;;;9.90;99.90;;;;;;5076023;28;20044;-70
2023/10/28 03:59:24;;;;;;;1.13;1.13;;;9.30;99.90;;;;;;5075954;28;20477;-70
2023/10/28 04:01:50;;;;;;;0.60;0.60;;;9.60;99.90;;;;;;5075914;28;20139;-69
2023/10/28 04:04:16;;;;;;;0.80;0.80;;;9.30;99.90;;;;;;5075620;28;20036;-70
2023/10/28 04:06:42;;;;;;;0.70;0.70;;;9.30;99.90;;;;;;5075457;28;20078;-69
2023/10/28 04:09:08;;;;;;;0.60;0.60;;;9.90;99.90;;;;;;5076323;28;20048;-69
2023/10/28 04:11:33;;;;;;;0.60;0.60;;;9.30;99.90;;;;;;5075721;28;20483;-69
2023/10/28 04:13:59;;;;;;;0.70;0.70;;;9.40;99.90;;;;;;5075418;28;20037;-69
2023/10/28 04:16:25;;;;;;;0.70;0.70;;;9.30;99.90;;;;;;5075681;28;20051;-69
2023/10/28 04:18:52;;;;;;;1.23;1.15;;;9.30;99.90;;;;;;5075544;28;20045;-69
2023/10/28 04:21:17;;;;;;;0.60;0.60;;;10.00;99.90;;;;;;5075497;28;20048;-69
2023/10/28 04:23:43;;;;;;;0.60;0.60;;;10.00;99.90;;;;;;5075551;28;20044;-70
2023/10/28 04:26:09;;;;;;;0.60;0.60;;;9.50;99.90;;;;;;5075456;28;20040;-69
2023/10/28 04:28:34;;;;;;;0.60;0.60;;;9.40;99.90;;;;;;5075456;28;20138;-69
2023/10/28 04:31:00;;;;;;;5.07;1.60;;;9.30;99.90;;;;;;5075358;28;20040;-69
2023/10/28 04:33:26;;;;;;;0.70;0.70;;;9.80;99.90;;;;;;5075174;28;20490;-69
2023/10/28 04:35:55;;;;;;;0.57;0.57;;;9.40;99.90;;;;;;5074964;28;20036;-70
2023/10/28 04:38:21;;;;;;;0.60;0.60;;;9.50;99.90;;;;;;5075545;28;20460;-69
2023/10/28 04:40:48;;;;;;;1.13;1.02;;;9.50;99.90;;;;;;5075177;28;20036;-69
2023/10/28 04:43:14;;;;;;;;;;;9.60;99.90;;;;;;5075521;28;20101;-69
2023/10/28 04:45:43;;;;;;;0.60;0.60;;;9.50;99.90;;;;;;5074743;28;19920;-69
2023/10/28 04:48:15;;;;;;;0.70;0.70;;;9.50;99.90;;;;;;5074985;28;20048;-69
2023/10/28 04:50:41;;;;;;;0.77;0.70;;;9.60;99.90;;;;;;5074879;28;20048;-69
2023/10/28 04:53:07;;;;;;;0.70;0.70;;;9.50;99.90;;;;;;5075339;28;20117;-69
2023/10/28 04:55:33;;;;;;;0.70;0.70;;;9.90;99.90;;;;;;5074786;28;20078;-69
2023/10/28 04:57:59;;;;;;;0.60;0.60;;;9.70;99.90;;;;;;5075039;28;20107;-69
2023/10/28 05:00:25;;;;;;;1.88;1.35;;;9.60;99.90;;;;;;5075045;28;20041;-69
2023/10/28 05:02:51;;;;;;;0.60;0.60;;;9.60;99.90;;;;;;5074733;28;20082;-69
2023/10/28 05:05:17;;;;;;;0.68;0.68;;;9.70;99.90;;;;;;5074641;28;20460;-69
2023/10/28 05:07:43;;;;;;;0.70;0.70;;;10.40;99.90;;;;;;5074225;28;20048;-69
2023/10/28 05:10:10;;;;;;;0.60;0.60;;;9.70;99.90;;;;;;5073841;28;20182;-69
2023/10/28 05:12:38;;;;;;;0.70;0.70;;;9.70;99.90;;;;;;5074556;28;20391;-69
2023/10/28 05:15:07;;;;;;;0.73;0.73;;;9.90;99.90;;;;;;5074403;28;20329;-69
2023/10/28 05:17:32;;;;;;;0.60;0.60;;;9.70;99.90;;;;;;5074373;28;20119;-69
2023/10/28 05:19:58;;;;;;;0.65;0.65;;;9.70;99.90;;;;;;5074797;28;20174;-69
2023/10/28 05:22:23;;;;;;;0.77;0.77;;;9.70;99.90;;;;;;5074373;28;20041;-69
2023/10/28 05:24:52;;;;;;;0.60;0.60;;;10.20;99.90;;;;;;5074240;28;20067;-69
2023/10/28 05:27:18;;;;;;;0.60;0.60;;;9.80;99.90;;;;;;5074362;28;20040;-69
2023/10/28 05:29:43;;;;;;;0.80;0.80;;;9.80;99.90;;;;;;5074213;28;20033;-70
2023/10/28 05:32:09;;;;;;;0.60;0.60;;;10.70;99.90;;;;;;5074173;28;20054;-70
2023/10/28 05:34:34;;;;;;;0.60;0.60;;;9.80;99.90;;;;;;5074010;28;20037;-70
2023/10/28 05:37:00;;;;;;;0.60;0.60;;;9.80;99.90;;;;;;5074033;28;20052;-70
2023/10/28 05:39:26;;;;;;;0.60;0.60;;;9.90;99.90;;;;;;5073126;28;20040;-70
2023/10/28 05:41:51;;;;;;;1.30;1.20;;;9.90;99.90;;;;;;5074235;28;20038;-70
2023/10/28 05:44:17;;;;;;;0.60;0.60;;;9.80;99.90;;;;;;5073977;28;20032;-70
2023/10/28 05:46:44;;;;;;;0.70;0.70;;;9.80;99.90;;;;;;5073304;28;20122;-70
2023/10/28 05:49:12;;;;;;;;;;;9.90;99.90;;;;;;5074210;28;20075;-70
2023/10/28 05:51:38;;;;;;;1.27;1.17;;;9.80;99.90;;;;;;5073798;28;19916;-70
2023/10/28 05:54:04;;;;;;;1.10;1.10;;;10.00;99.90;;;;;;5073751;28;20080;-70
2023/10/28 05:56:30;;;;;;;0.60;0.60;;;9.80;99.90;;;;;;5073818;28;20086;-70
2023/10/28 05:58:58;;;;;;;0.70;0.70;;;9.80;99.90;;;;;;5073751;28;20044;-70
2023/10/28 06:01:24;;;;;;;0.60;0.60;;;9.80;99.90;;;;;;5073698;28;20051;-70
2023/10/28 06:03:50;;;;;;;0.82;0.80;;;9.80;99.90;;;;;;5073593;28;20045;-70
2023/10/28 06:06:15;;;;;;;0.68;0.68;;;9.80;99.90;;;;;;5073983;28;20028;-70
2023/10/28 06:08:41;;;;;;;0.70;0.70;;;9.90;99.90;;;;;;5073775;28;20048;-69
2023/10/28 06:11:09;;;;;;;0.60;0.60;;;9.80;99.90;;;;;;5072300;28;20040;-70
2023/10/28 06:13:35;;;;;;;0.70;0.70;;;9.80;99.90;;;;;;5073408;28;20055;-70
2023/10/28 06:16:01;;;;;;;0.70;0.70;;;9.80;99.90;;;;;;5073508;28;20040;-70
2023/10/28 06:18:26;;;;;;;0.90;0.90;;;10.50;99.90;;;;;;5073347;28;20043;-70
2023/10/28 06:20:52;;;;;;;0.80;0.80;;;9.80;99.90;;;;;;5073564;28;20055;-70
2023/10/28 06:23:18;;;;;;;0.85;0.85;;;9.70;99.90;;;;;;5073161;28;20040;-70
2023/10/28 06:25:43;;;;;;;0.60;0.60;;;9.80;99.90;;;;;;5073690;28;20043;-70
2023/10/28 06:28:10;;;;;;;0.80;0.80;;;10.10;99.90;;;;;;5073674;28;20112;-70
2023/10/28 06:30:44;;;;;;;0.80;0.80;;;9.80;99.90;;;;;;5073453;28;20416;-70
2023/10/28 06:33:12;;;;;;;0.70;0.70;;;9.80;99.90;;;;;;5073799;28;20131;-70
2023/10/28 06:35:37;;;;;;;0.70;0.70;;;9.70;99.90;;;;;;5073185;28;20439;-70
2023/10/28 06:38:03;;;;;;;0.70;0.70;;;9.70;99.90;;;;;;5073408;28;20051;-70
2023/10/28 06:40:28;;;;;;;0.70;0.70;;;9.80;99.90;;;;;;5073325;28;20431;-70
2023/10/28 06:42:56;;;;;;;0.60;0.60;;;9.80;99.90;;;;;;5073304;28;20040;-70
2023/10/28 06:45:22;;;;;;;0.70;0.70;;;9.70;99.90;;;;;;5073129;28;20049;-68
2023/10/28 06:47:48;;;;;;;0.70;0.70;;;9.70;99.90;;;;;;5073744;28;20047;-69
2023/10/28 06:50:19;;;;;;;0.70;0.70;;;9.70;99.90;;;;;;5073204;28;20376;-69
2023/10/28 06:52:45;;;;;;;0.60;0.60;;;9.70;99.90;;;;;;5073509;28;20041;-69
2023/10/28 06:55:12;;;;;;;0.70;0.70;;;9.70;99.90;;;;;;5073245;28;20067;-69
2023/10/28 06:57:38;;;;;;;0.60;0.60;;;10.70;99.90;;;;;;5071868;28;20387;-69
2023/10/28 07:00:06;;;;;;;0.70;0.70;;;9.70;99.90;;;;;;5076660;28;20036;-69
2023/10/28 07:02:32;;;;;;;0.60;0.60;;;9.70;99.90;;;;;;5075348;28;20461;-69
2023/10/28 07:04:58;;;;;;;0.70;0.70;;;9.70;99.90;;;;;;5076844;28;20357;-69
2023/10/28 07:07:23;;;;;;;0.70;0.70;;;9.60;99.90;;;;;;5076892;28;20071;-69
2023/10/28 07:09:49;;;;;;;0.80;0.80;;;9.60;99.90;;;;;;5076816;28;20454;-70
2023/10/28 07:12:15;;;;;;;0.60;0.60;;;9.60;99.90;;;;;;5076912;28;20033;-70
2023/10/28 07:14:41;;;;;;;0.60;0.60;;;9.60;99.90;;;;;;5076577;28;20064;-70
2023/10/28 07:17:06;;;;;;;0.75;0.75;;;9.60;99.90;;;;;;5076297;28;20052;-70
2023/10/28 07:19:32;;;;;;;0.80;0.80;;;9.60;99.90;;;;;;5076547;28;20049;-70
2023/10/28 07:21:57;;;;;;;0.60;0.60;;;9.60;99.90;;;;;;5076426;28;20040;-70
2023/10/28 07:24:23;;;;;;;0.60;0.60;;;9.60;99.90;;;;;;5076453;28;20040;-70
2023/10/28 07:26:51;;;;;;;0.60;0.60;;;9.60;99.90;;;;;;5076377;28;20369;-70
2023/10/28 07:29:17;;;;;;;0.60;0.60;;;9.60;99.90;;;;;;5076268;28;20539;-70
2023/10/28 07:31:42;;;;;;;0.70;0.70;;;10.10;99.90;;;;;;5076321;28;20119;-70
2023/10/28 07:34:08;;;;;;;0.60;0.60;;;10.30;99.90;;;;;;5076250;28;20080;-70
2023/10/28 07:36:34;;;;;;;0.70;0.70;;;9.60;99.90;;;;;;5076346;28;20127;-70
2023/10/28 07:39:03;;;;;;;0.70;0.70;;;9.70;99.90;;;;;;5076284;28;20576;-70
2023/10/28 07:41:29;;;;;;;0.60;0.60;;;9.70;99.90;;;;;;5076179;28;20052;-70
2023/10/28 07:43:56;;;;;;;0.60;0.60;;;9.70;99.90;;;;;;5076151;28;20178;-70
2023/10/28 07:46:22;;;;;;;0.60;0.60;;;9.80;99.90;;;;;;5075809;28;20040;-70
2023/10/28 07:48:48;;;;;;;0.70;0.70;;;9.80;99.90;;;;;;5076069;28;20040;-70
2023/10/28 07:51:16;;;;;;;0.70;0.70;;;9.80;99.90;;;;;;5075950;28;20082;-70
2023/10/28 07:53:42;;;;;;;0.70;0.70;;;9.90;99.90;;;;;;5075832;28;20048;-70
2023/10/28 07:56:07;;;;;;;1.20;1.15;;;9.90;99.90;;;;;;5075892;28;20044;-70
2023/10/28 07:58:33;;;;;;;0.80;0.80;;;9.90;99.90;;;;;;5075528;28;20040;-70
2023/10/28 08:00:58;;;;;;;0.68;0.68;;;10.10;99.90;;;;;;5076474;28;20044;-70
2023/10/28 08:03:25;;;;;;;1.85;1.30;;;10.00;99.90;;;;;;5075775;28;20078;-70
2023/10/28 08:05:50;;;;;;;0.70;0.70;;;10.00;99.90;;;;;;5075693;28;20089;-70
2023/10/28 08:08:16;;;;;;;0.70;0.70;;;10.00;99.90;;;;;;5074292;28;20484;-70
2023/10/28 08:10:42;;;;;;;0.80;0.80;;;10.00;99.90;;;;;;5075108;28;20044;-70
2023/10/28 08:13:07;;;;;;;1.80;1.70;;;10.10;99.90;;;;;;5075632;28;20097;-70
2023/10/28 08:15:33;;;;;;;0.70;0.70;;;10.10;99.90;;;;;;5075548;28;20048;-70
2023/10/28 08:17:59;;;;;;;0.60;0.60;;;10.10;99.90;;;;;;5075516;28;20464;-70
2023/10/28 08:20:26;;;;;;;0.70;0.70;;;10.30;99.90;;;;;;5075479;28;20036;-70
2023/10/28 08:22:52;;;;;;;;;;;10.20;99.90;;;;;;5075764;28;20049;-70
2023/10/28 08:25:18;;;;;;;1.63;1.23;;;10.50;99.90;;;;;;5075407;28;19916;-70
2023/10/28 08:27:44;;;;;;;0.70;0.70;;;10.20;99.90;;;;;;5074035;28;20044;-70
2023/10/28 08:30:15;;;;;;;0.60;0.60;;;10.20;99.90;;;;;;5075225;28;20044;-70
2023/10/28 08:32:41;;;;;;;0.70;0.70;;;10.30;99.90;;;;;;5075435;28;20097;-70
2023/10/28 08:35:09;;;;;;;0.63;0.63;;;10.30;99.90;;;;;;5075073;28;20036;-70
2023/10/28 08:37:34;;;;;;;0.70;0.70;;;10.30;99.90;;;;;;5075142;28;20040;-70
2023/10/28 08:40:00;;;;;;;0.63;0.63;;;11.00;99.90;;;;;;5074989;28;20045;-70
2023/10/28 08:42:25;;;;;;;0.63;0.63;;;10.40;99.90;;;;;;5074909;28;20085;-70
2023/10/28 08:44:52;;;;;;;0.60;0.60;;;10.40;99.90;;;;;;5074985;28;20459;-70
2023/10/28 08:47:22;;;;;;;0.60;0.60;;;10.40;99.90;;;;;;5074854;28;20119;-70
2023/10/28 08:49:51;;;;;;;0.60;0.60;;;10.60;99.90;;;;;;5075249;28;20080;-70
2023/10/28 08:52:21;;;;;;;0.77;0.77;;;10.50;99.90;;;;;;5074726;28;20044;-70
2023/10/28 08:54:47;;;;;;;0.57;0.57;;;10.50;99.90;;;;;;5074667;28;20460;-70
2023/10/28 08:57:14;;;;;;;0.70;0.70;;;10.60;99.90;;;;;;5073663;28;20044;-70
2023/10/28 08:59:40;;;;;;;0.70;0.70;;;10.60;99.90;;;;;;5074782;28;20472;-70
2023/10/28 09:02:10;;;;;;;0.70;0.70;;;10.80;99.90;;;;;;5073743;28;20044;-70
2023/10/28 09:04:36;;;;;;;0.70;0.70;;;10.70;99.90;;;;;;5074821;28;20040;-70
2023/10/28 09:07:04;;;;;;;0.60;0.60;;;10.70;99.90;;;;;;5074240;28;20082;-70
2023/10/28 09:09:30;;;;;;;0.60;0.60;;;10.70;99.90;;;;;;5074467;28;20048;-70
2023/10/28 09:11:57;;;;;;;0.80;0.80;;;10.70;99.90;;;;;;5073036;28;20033;-70
2023/10/28 09:14:23;;;;;;;0.70;0.70;;;11.10;99.90;;;;;;5074314;28;20032;-70
2023/10/28 09:16:49;;;;;;;0.80;0.80;;;10.70;99.90;;;;;;5074138;28;20537;-71
2023/10/28 09:19:19;;;;;;;0.70;0.70;;;10.80;99.90;;;;;;5074231;28;20040;-70
2023/10/28 09:21:49;;;;;;;0.60;0.60;;;10.70;99.90;;;;;;5073622;28;20040;-71
2023/10/28 09:24:16;;;;;;;0.60;0.60;;;10.80;99.90;;;;;;5073720;28;20409;-70
2023/10/28 09:26:42;;;;;;;0.60;0.60;;;10.80;99.90;;;;;;5073252;28;20048;-71
2023/10/28 09:29:08;;;;;;;0.93;0.93;;;10.80;99.90;;;;;;5074004;28;20037;-70
2023/10/28 09:31:34;;;;;;;0.70;0.70;;;10.80;99.90;;;;;;5073999;28;20062;-69
2023/10/28 09:34:00;;;;;;;0.90;0.90;;;10.80;99.90;;;;;;5073741;28;20044;-69
2023/10/28 09:36:28;;;;;;;1.23;1.13;;;10.80;99.90;;;;;;5074044;28;20036;-70
2023/10/28 09:38:55;;;;;;;0.70;0.70;;;10.80;99.90;;;;;;5073806;28;20484;-69
2023/10/28 09:41:21;;;;;;;0.70;0.70;;;10.90;99.90;;;;;;5073866;28;20044;-69
2023/10/28 09:43:47;;;;;;;0.68;0.68;;;10.80;99.90;;;;;;5073899;28;20039;-69
2023/10/28 09:46:18;;;;;;;6.53;0.77;;;10.90;99.90;;;;;;5073840;28;20055;-69
2023/10/28 09:48:48;;;;;;;0.70;0.70;;;10.90;99.90;;;;;;5074029;28;20111;-70
2023/10/28 09:51:22;;;;;;;0.70;0.70;;;10.90;99.90;;;;;;5072539;28;20048;-69
2023/10/28 09:54:02;;;;;;;0.60;0.60;;;10.90;99.90;;;;;;5073708;28;20041;-69
2023/10/28 09:56:36;;;;;;;0.70;0.70;;;11.00;99.90;;;;;;5074002;28;20415;-69
2023/10/28 09:59:10;;;;;;;0.70;0.70;;;11.00;99.90;;;;;;5073703;28;20032;-70
2023/10/28 10:02:01;;;;;;;0.60;0.60;;;11.00;99.90;;;;;;5073638;28;20057;-69
2023/10/28 10:04:36;;;;;;;0.70;0.70;;;11.00;99.90;;;;;;5074004;28;20101;-69
2023/10/28 10:07:02;;;;;;;0.68;0.68;;;11.00;99.90;;;;;;5073499;28;20380;-69
2023/10/28 10:09:28;;;;;;;0.65;0.65;;;11.00;99.90;;;;;;5073863;28;20043;-69
2023/10/28 10:11:56;;;;;;;0.70;0.70;;;11.60;99.90;;;;;;5073567;28;20040;-69
2023/10/28 10:14:22;;;;;;;0.70;0.70;;;11.00;99.90;;;;;;5073473;28;20043;-69
2023/10/28 10:17:21;;;;;;;1.13;1.02;;;11.00;99.90;;;;;;5073522;28;20147;-69
2023/10/28 10:19:48;;;;;;;0.60;0.60;;;11.00;99.90;;;;;;5065634;28;20092;-69
2023/10/28 10:22:16;;;;;;;0.70;0.70;;;11.50;99.90;;;;;;5073473;28;20090;-70
2023/10/28 10:24:51;;;;;;;1.60;1.50;;;11.30;99.90;;;;;;5073414;28;20050;-70
2023/10/28 10:27:38;;;;;;;0.70;0.70;;;11.10;99.90;;;;;;5073411;28;20059;-70
2023/10/28 10:30:09;;;;;;;0.60;0.60;;;11.10;99.90;;;;;;5073517;28;20053;-70
2023/10/28 10:32:41;;;;;;;0.70;0.70;;;11.10;99.90;;;;;;5074975;28;20045;-69
2023/10/28 10:35:27;;;;;;;0.60;0.60;;;11.50;99.90;;;;;;5077397;28;20047;-70
2023/10/28 10:38:09;;;;;;;0.80;0.80;;;11.20;99.90;;;;;;5077483;28;20032;-69
2023/10/28 10:40:49;;;;;;;0.70;0.70;;;11.30;99.90;;;;;;5060112;28;20047;-70
2023/10/28 10:43:19;;;;;;;0.60;0.60;;;11.30;99.90;;;;;;5077380;28;20045;-70
2023/10/28 10:45:45;;;;;;;0.60;0.60;;;11.40;99.90;;;;;;5077306;28;20037;-70
2023/10/28 10:48:11;;;;;;;0.60;0.60;;;11.40;99.90;;;;;;5077691;28;20377;-69
2023/10/28 10:50:40;;;;;;;0.60;0.60;;;11.40;99.90;;;;;;5077037;28;20174;-69
2023/10/28 10:53:06;;;;;;;0.60;0.60;;;11.50;99.90;;;;;;5077090;28;20043;-69
2023/10/28 10:55:32;;;;;;;13.40;1.08;;;11.50;99.90;;;;;;5077147;28;20368;-70
2023/10/28 10:57:58;;;;;;;1.40;1.23;;;11.50;99.90;;;;;;5076976;28;20029;-69
2023/10/28 11:00:24;;;;;;;0.70;0.70;;;11.40;99.90;;;;;;5076892;28;20047;-69
2023/10/28 11:02:53;;;;;;;0.70;0.70;;;11.60;99.90;;;;;;5076808;28;20048;-70
2023/10/28 11:05:18;;;;;;;0.60;0.60;;;11.60;99.90;;;;;;5076837;28;20051;-70
2023/10/28 11:07:45;;;;;;;2.38;1.63;;;11.50;99.90;;;;;;5076907;28;20049;-69
2023/10/28 11:10:12;;;;;;;0.60;0.60;;;11.50;99.90;;;;;;5076689;28;20502;-69
2023/10/28 11:12:38;;;;;;;1.40;1.30;;;11.50;99.90;;;;;;5075469;28;20087;-69
2023/10/28 11:15:05;;;;;;;0.70;0.70;;;11.80;99.90;;;;;;5076488;28;20082;-70
2023/10/28 11:17:33;;;;;;;;;;;11.60;99.90;;;;;;5076952;28;20036;-70
2023/10/28 11:20:00;;;;;;;0.50;0.50;;;11.60;99.90;;;;;;5076551;28;19916;-70
2023/10/28 11:22:28;;;;;;;0.80;0.80;;;11.60;99.90;;;;;;5076519;28;20076;-70
2023/10/28 11:24:57;;;;;;;0.70;0.70;;;11.60;99.90;;;;;;5076530;28;20361;-69
2023/10/28 11:27:26;;;;;;;0.80;0.80;;;11.60;99.90;;;;;;5076502;28;20040;-69
2023/10/28 11:29:57;;;;;;;0.60;0.60;;;11.50;99.90;;;;;;5076338;28;20044;-70
2023/10/28 11:32:23;;;;;;;0.70;0.70;;;11.60;99.90;;;;;;5076510;28;20040;-70
2023/10/28 11:34:49;;;;;;;3.08;2.47;;;11.70;99.90;;;;;;5076328;28;20482;-70
2023/10/28 11:37:15;;;;;;;1.15;0.73;;;11.70;99.90;;;;;;5076345;28;20028;-69
2023/10/28 11:39:44;;;;;;;0.60;0.60;;;12.00;99.90;;;;;;5075980;28;20036;-69
2023/10/28 11:42:15;;;;;;;0.70;0.70;;;11.80;99.90;;;;;;5076133;28;20083;-69
2023/10/28 11:44:46;;;;;;;1.77;1.67;;;11.80;99.90;;;;;;5075216;28;20048;-70
2023/10/28 11:47:11;;;;;;;0.63;0.63;;;11.80;99.90;;;;;;5076768;28;20060;-69
2023/10/28 11:49:37;;;;;;;0.80;0.80;;;11.80;99.90;;;;;;5075917;28;20047;-69
2023/10/28 11:52:04;;;;;;;0.70;0.70;;;11.80;99.90;;;;;;5076047;28;20037;-69
2023/10/28 11:54:29;;;;;;;0.60;0.60;;;11.80;99.90;;;;;;5075928;28;20036;-69
2023/10/28 11:56:55;;;;;;;0.93;0.93;;;11.90;99.90;;;;;;5075893;28;20041;-69
2023/10/28 11:59:21;;;;;;;0.70;0.70;;;11.90;99.90;;;;;;5076346;28;20049;-70
2023/10/28 12:01:47;;;;;;;5.28;1.23;;;11.90;99.90;;;;;;5074656;28;20036;-70
2023/10/28 12:04:14;;;;;;;0.60;0.60;;;11.90;99.90;;;;;;5076165;28;20040;-69
2023/10/28 12:06:41;;;;;;;0.60;0.60;;;12.10;99.90;;;;;;5075776;28;20066;-69
2023/10/28 12:09:13;;;;;;;0.95;0.95;;;12.10;99.90;;;;;;5075799;28;20048;-69
2023/10/28 12:11:38;;;;;;;0.57;0.57;;;12.20;99.90;;;;;;5075645;28;20044;-69
2023/10/28 12:14:10;;;;;;;0.87;0.87;;;12.10;99.90;;;;;;5075591;28;20036;-69
2023/10/28 12:16:39;;;;;;;0.60;0.60;;;12.40;99.90;;;;;;5075280;28;20040;-69
2023/10/28 12:19:05;;;;;;;0.60;0.60;;;12.40;99.90;;;;;;5075606;28;20036;-70
2023/10/28 12:21:32;;;;;;;0.60;0.60;;;12.50;99.90;;;;;;5075499;28;20045;-70
2023/10/28 12:23:57;;;;;;;0.60;0.60;;;12.50;99.90;;;;;;5075492;28;20476;-70
2023/10/28 12:26:23;;;;;;;0.60;0.60;;;12.60;99.90;;;;;;5075399;28;20041;-70
2023/10/28 12:28:49;;;;;;;0.60;0.60;;;12.60;99.90;;;;;;5075965;28;20036;-69
2023/10/28 12:31:16;;;;;;;0.60;0.60;;;12.50;99.90;;;;;;5075356;28;20040;-69
2023/10/28 12:33:41;;;;;;;0.50;0.50;;;12.60;99.90;;;;;;5075167;28;20047;-70
2023/10/28 12:36:08;;;;;;;0.75;0.75;;;12.60;99.90;;;;;;5075423;28;20041;-70
2023/10/28 12:38:34;;;;;;;0.90;0.90;;;12.60;99.90;;;;;;5075108;28;20045;-70
2023/10/28 12:41:00;;;;;;;0.77;0.70;;;12.50;99.90;;;;;;5074871;28;20101;-69
2023/10/28 12:43:27;;;;;;;0.60;0.60;;;12.50;99.90;;;;;;5075118;28;20372;-69
2023/10/28 12:45:54;;;;;;;0.70;0.70;;;12.60;99.90;;;;;;5074972;28;20048;-70
2023/10/28 12:48:20;;;;;;;0.80;0.80;;;12.90;99.90;;;;;;5075221;28;20051;-69
2023/10/28 12:50:46;;;;;;;0.60;0.60;;;12.60;99.90;;;;;;5074935;28;20123;-70